createdAt,value
2022-08-19T00:01:57.301Z,11.00
2022-08-19T00:04:30.055Z,11.50
2022-08-19T00:06:58.316Z,10.10
2022-08-19T00:09:27.761Z,11.15
2022-08-19T00:11:57.795Z,10.77
2022-08-19T00:14:32.900Z,11.73
2022-08-19T00:17:03.895Z,12.48
2022-08-19T00:19:33.262Z,11.02
2022-08-19T00:22:02.120Z,12.38
2022-08-19T00:24:30.725Z,11.45
2022-08-19T00:27:04.949Z,11.25
2022-08-19T00:29:52.514Z,11.73
2022-08-19T00:32:21.336Z,11.60
2022-08-19T00:34:49.865Z,12.55
2022-08-19T00:37:18.385Z,12.63
2022-08-19T00:39:49.144Z,11.77
2022-08-19T00:42:18.035Z,11.73
2022-08-19T00:44:46.151Z,12.10
2022-08-19T00:47:16.248Z,12.60
2022-08-19T00:49:52.074Z,11.90
2022-08-19T00:52:24.746Z,11.98
2022-08-19T00:54:54.329Z,11.80
2022-08-19T00:57:32.108Z,12.13
2022-08-19T01:00:03.277Z,12.63
2022-08-19T01:02:34.331Z,12.35
2022-08-19T01:05:05.328Z,12.23
2022-08-19T01:07:35.839Z,12.45
2022-08-19T01:10:09.834Z,11.55
2022-08-19T01:12:38.927Z,12.10
2022-08-19T01:15:08.817Z,12.30
2022-08-19T01:17:41.629Z,13.15
2022-08-19T01:20:13.269Z,14.05
2022-08-19T01:22:47.842Z,13.23
2022-08-19T01:25:17.400Z,13.52
2022-08-19T01:27:50.053Z,13.90
2022-08-19T01:30:34.197Z,14.05
2022-08-19T01:33:03.317Z,13.20
2022-08-19T01:35:33.255Z,14.38
2022-08-19T01:38:09.411Z,13.65
2022-08-19T01:40:40.993Z,14.65
2022-08-19T01:43:09.851Z,14.25
2022-08-19T01:45:41.196Z,13.43
2022-08-19T01:48:10.313Z,14.52
2022-08-19T01:50:39.550Z,13.80
2022-08-19T01:53:13.726Z,14.10
2022-08-19T01:55:45.051Z,13.93
2022-08-19T01:58:16.409Z,14.05
2022-08-19T02:00:46.319Z,14.30
2022-08-19T02:03:15.598Z,13.85
2022-08-19T02:05:44.534Z,14.60
2022-08-19T02:08:14.807Z,14.80
2022-08-19T02:10:45.346Z,15.65
2022-08-19T02:13:14.805Z,14.48
2022-08-19T02:15:43.637Z,15.05
2022-08-19T02:18:12.306Z,14.38
2022-08-19T02:20:42.475Z,14.95
2022-08-19T02:23:13.311Z,14.68
2022-08-19T02:25:45.380Z,14.60
2022-08-19T02:28:18.353Z,14.98
2022-08-19T02:30:48.778Z,15.45
2022-08-19T02:33:17.390Z,15.02
2022-08-19T02:35:46.329Z,14.20
2022-08-19T02:38:30.358Z,13.77
2022-08-19T02:41:02.251Z,14.02
2022-08-19T02:43:33.809Z,14.07
2022-08-19T02:46:03.537Z,13.65
2022-08-19T02:48:32.922Z,15.07
2022-08-19T02:51:01.407Z,15.00
2022-08-19T02:53:30.350Z,13.38
2022-08-19T02:56:00.442Z,13.32
2022-08-19T02:58:28.785Z,13.02
2022-08-19T03:00:59.443Z,12.35
2022-08-19T03:03:28.170Z,13.65
2022-08-19T03:06:10.560Z,13.32
2022-08-19T03:08:39.736Z,12.85
2022-08-19T03:11:16.022Z,14.20
2022-08-19T03:13:44.809Z,13.05
2022-08-19T03:16:14.907Z,13.25
2022-08-19T03:18:44.007Z,13.55
2022-08-19T03:21:17.381Z,14.32
2022-08-19T03:23:46.099Z,14.30
2022-08-19T03:26:17.238Z,14.68
2022-08-19T03:28:51.124Z,14.50
2022-08-19T03:31:43.806Z,14.88
2022-08-19T03:34:12.683Z,15.07
2022-08-19T03:36:42.964Z,16.55
2022-08-19T03:39:13.015Z,15.02
2022-08-19T03:41:48.271Z,15.38
2022-08-19T03:44:19.044Z,15.95
2022-08-19T03:46:50.069Z,14.88
2022-08-19T03:49:18.716Z,15.30
2022-08-19T03:51:50.284Z,15.65
2022-08-19T03:54:20.473Z,16.77
2022-08-19T03:56:51.883Z,16.08
2022-08-19T03:59:26.092Z,15.63
2022-08-19T04:01:55.541Z,14.25
2022-08-19T04:04:24.062Z,15.90
2022-08-19T04:06:53.048Z,16.00
2022-08-19T04:09:22.863Z,16.27
2022-08-19T04:11:55.731Z,15.05
2022-08-19T04:14:26.503Z,14.65
2022-08-19T04:16:54.703Z,16.13
2022-08-19T04:19:22.899Z,16.98
2022-08-19T04:21:53.640Z,15.90
2022-08-19T04:24:23.176Z,16.98
2022-08-19T04:26:53.425Z,16.55
2022-08-19T04:29:25.922Z,17.48
2022-08-19T04:31:56.180Z,16.08
2022-08-19T04:34:27.381Z,16.90
2022-08-19T04:36:58.538Z,15.57
2022-08-19T04:39:49.691Z,15.95
2022-08-19T04:42:38.038Z,16.42
2022-08-19T04:45:09.224Z,16.30
2022-08-19T04:47:47.638Z,16.23
2022-08-19T04:50:21.678Z,17.00
2022-08-19T04:52:52.595Z,16.58
2022-08-19T04:55:21.456Z,15.50
2022-08-19T04:57:51.744Z,16.17
2022-08-19T05:00:20.548Z,15.38
2022-08-19T05:02:50.356Z,15.15
2022-08-19T05:05:18.732Z,14.55
2022-08-19T05:07:47.319Z,14.65
2022-08-19T05:10:15.382Z,14.60
2022-08-19T05:12:43.900Z,15.20
2022-08-19T05:15:13.657Z,14.43
2022-08-19T05:18:03.681Z,16.38
2022-08-19T05:20:49.186Z,15.32
2022-08-19T05:23:22.096Z,16.42
2022-08-19T05:25:51.694Z,15.77
2022-08-19T05:28:20.499Z,16.88
2022-08-19T05:30:52.307Z,18.40
2022-08-19T05:33:20.770Z,16.48
2022-08-19T05:35:49.781Z,15.35
2022-08-19T05:38:18.478Z,14.85
2022-08-19T05:40:50.437Z,14.30
2022-08-19T05:43:18.612Z,14.27
2022-08-19T05:45:47.153Z,15.20
2022-08-19T05:48:18.865Z,15.75
2022-08-19T05:50:47.779Z,14.93
2022-08-19T05:53:17.800Z,16.40
2022-08-19T05:55:45.926Z,16.25
2022-08-19T05:58:14.267Z,15.88
2022-08-19T06:00:45.562Z,16.45
2022-08-19T06:03:13.659Z,15.23
2022-08-19T06:05:51.478Z,15.20
2022-08-19T06:08:34.178Z,15.20
2022-08-19T06:11:16.727Z,15.52
2022-08-19T06:13:46.514Z,17.30
2022-08-19T06:16:20.425Z,15.05
2022-08-19T06:18:48.517Z,16.80
2022-08-19T06:21:18.439Z,14.70
2022-08-19T06:23:48.787Z,16.00
2022-08-19T06:26:17.505Z,15.18
2022-08-19T06:28:47.727Z,14.80
2022-08-19T06:31:17.175Z,12.75
2022-08-19T06:33:46.635Z,13.60
2022-08-19T06:36:21.931Z,12.63
2022-08-19T06:38:54.422Z,13.57
2022-08-19T06:41:23.098Z,12.70
2022-08-19T06:43:53.971Z,12.95
2022-08-19T06:46:23.254Z,14.15
2022-08-19T06:48:54.355Z,13.90
2022-08-19T06:51:26.423Z,14.25
2022-08-19T06:54:00.444Z,13.85
2022-08-19T06:56:34.733Z,14.02
2022-08-19T06:59:04.071Z,13.48
2022-08-19T07:01:32.572Z,13.63
2022-08-19T07:04:01.504Z,13.85
2022-08-19T07:06:43.469Z,13.80
2022-08-19T07:09:18.462Z,13.85
2022-08-19T07:11:49.043Z,13.10
2022-08-19T07:14:20.045Z,12.93
2022-08-19T07:16:50.497Z,13.95
2022-08-19T07:19:20.045Z,12.82
2022-08-19T07:21:52.059Z,12.85
2022-08-19T07:24:21.918Z,11.95
2022-08-19T07:26:51.886Z,11.18
2022-08-19T07:29:25.569Z,11.60
2022-08-19T07:31:57.530Z,12.25
2022-08-19T07:34:29.299Z,11.43
2022-08-19T07:36:59.589Z,11.23
2022-08-19T07:39:34.680Z,12.38
2022-08-19T07:42:07.293Z,11.93
2022-08-19T07:44:36.530Z,12.48
2022-08-19T07:47:06.506Z,12.48
2022-08-19T07:49:35.333Z,12.30
2022-08-19T07:52:08.398Z,12.63
2022-08-19T07:54:39.763Z,13.10
2022-08-19T07:57:09.792Z,11.10
2022-08-19T07:59:38.174Z,12.07
2022-08-19T08:02:07.086Z,11.35
2022-08-19T08:04:52.752Z,12.23
2022-08-19T08:07:39.924Z,11.15
2022-08-19T08:10:21.306Z,12.15
2022-08-19T08:13:08.793Z,10.77
2022-08-19T08:15:42.690Z,11.02
2022-08-19T08:18:12.148Z,11.32
2022-08-19T08:20:41.556Z,12.18
2022-08-19T08:23:27.529Z,9.95
2022-08-19T08:25:57.931Z,11.73
2022-08-19T08:28:29.794Z,11.93
2022-08-19T08:30:59.677Z,10.55
2022-08-19T08:33:33.294Z,11.98
2022-08-19T08:36:04.252Z,10.73
2022-08-19T08:38:42.708Z,11.13
2022-08-19T08:41:20.145Z,10.98
2022-08-19T08:43:52.426Z,11.38
2022-08-19T08:46:31.514Z,11.23
2022-08-19T08:49:08.809Z,10.68
2022-08-19T08:54:14.656Z,10.45
2022-08-19T08:56:44.954Z,11.90
2022-08-19T08:59:22.858Z,11.05
2022-08-19T09:01:51.471Z,10.30
2022-08-19T09:04:19.942Z,10.82
2022-08-19T09:06:57.352Z,11.13
2022-08-19T09:09:33.388Z,10.63
2022-08-19T09:12:11.678Z,11.00
2022-08-19T09:14:50.862Z,10.35
2022-08-19T09:17:22.319Z,11.18
2022-08-19T09:19:56.709Z,11.40
2022-08-19T09:22:27.352Z,10.63
2022-08-19T09:24:57.570Z,10.90
2022-08-19T09:27:41.979Z,11.10
2022-08-19T09:30:15.785Z,9.48
2022-08-19T09:32:44.428Z,10.65
2022-08-19T09:35:14.266Z,10.10
2022-08-19T09:37:43.717Z,11.15
2022-08-19T09:40:15.557Z,9.48
2022-08-19T09:42:50.240Z,10.02
2022-08-19T09:45:23.249Z,10.70
2022-08-19T09:47:55.116Z,10.25
2022-08-19T09:50:25.179Z,10.15
2022-08-19T09:52:58.449Z,10.13
2022-08-19T09:55:31.136Z,9.63
2022-08-19T09:58:02.266Z,10.80
2022-08-19T10:00:31.743Z,9.57
2022-08-19T10:03:01.019Z,9.52
2022-08-19T10:05:48.585Z,10.30
2022-08-19T10:08:18.684Z,10.52
2022-08-19T10:10:52.016Z,10.18
2022-08-19T10:13:26.489Z,10.40
2022-08-19T10:15:57.305Z,9.23
2022-08-19T10:18:26.837Z,9.48
2022-08-19T10:21:04.707Z,9.35
2022-08-19T10:23:33.597Z,8.30
2022-08-19T10:26:05.124Z,8.75
2022-08-19T10:28:33.719Z,8.20
2022-08-19T10:31:07.836Z,8.05
2022-08-19T10:33:38.701Z,8.60
2022-08-19T10:36:23.554Z,8.50
2022-08-19T10:38:56.831Z,8.95
2022-08-19T10:41:28.413Z,8.93
2022-08-19T10:44:02.391Z,8.18
2022-08-19T10:46:33.998Z,8.40
2022-08-19T10:49:03.526Z,7.78
2022-08-19T10:51:50.028Z,7.93
2022-08-19T10:54:28.777Z,8.77
2022-08-19T10:57:01.034Z,8.18
2022-08-19T10:59:35.806Z,8.25
2022-08-19T11:02:07.427Z,7.45
2022-08-19T11:04:35.920Z,9.18
2022-08-19T11:07:04.743Z,8.23
2022-08-19T11:09:34.653Z,8.60
2022-08-19T11:12:04.830Z,9.55
2022-08-19T11:14:34.568Z,8.77
2022-08-19T11:17:02.789Z,8.43
2022-08-19T11:19:31.747Z,8.00
2022-08-19T11:22:02.358Z,8.20
2022-08-19T11:24:34.156Z,8.45
2022-08-19T11:27:10.546Z,7.38
2022-08-19T11:29:40.813Z,8.23
2022-08-19T11:32:12.967Z,8.48
2022-08-19T11:34:41.613Z,7.63
2022-08-19T11:37:10.428Z,8.63
2022-08-19T11:39:39.453Z,7.53
2022-08-19T11:42:23.456Z,8.02
2022-08-19T11:44:52.076Z,8.10
2022-08-19T11:47:20.344Z,7.63
2022-08-19T11:49:48.625Z,8.52
2022-08-19T11:52:16.863Z,7.95
2022-08-19T11:54:44.917Z,6.97
2022-08-19T11:57:16.309Z,19.13
2022-08-19T11:59:44.584Z,19.63
2022-08-19T12:02:12.802Z,19.80
2022-08-19T12:04:41.335Z,16.48
2022-08-19T12:07:09.871Z,13.38
2022-08-19T12:09:42.169Z,12.57
2022-08-19T12:12:11.096Z,9.43
2022-08-19T12:14:40.976Z,9.68
2022-08-19T12:17:10.125Z,8.82
2022-08-19T12:19:39.218Z,7.82
2022-08-19T12:22:08.597Z,7.53
2022-08-19T12:24:36.843Z,7.18
2022-08-19T12:27:05.567Z,6.75
2022-08-19T12:29:42.905Z,7.18
2022-08-19T12:32:12.141Z,6.55
2022-08-19T12:34:41.490Z,6.38
2022-08-19T12:37:10.577Z,6.75
2022-08-19T12:39:41.418Z,8.23
2022-08-19T12:42:09.802Z,7.72
2022-08-19T12:44:39.023Z,9.52
2022-08-19T12:47:13.044Z,13.63
2022-08-19T12:49:54.064Z,11.32
2022-08-19T12:52:25.919Z,10.00
2022-08-19T12:54:55.645Z,10.70
2022-08-19T12:57:32.123Z,12.55
2022-08-19T13:00:05.439Z,11.52
2022-08-19T13:02:38.475Z,11.90
2022-08-19T13:05:10.720Z,13.02
2022-08-19T13:07:41.563Z,13.20
2022-08-19T13:10:13.240Z,17.23
2022-08-19T13:12:43.298Z,13.48
2022-08-19T13:15:12.457Z,14.60
2022-08-19T13:17:42.438Z,13.43
2022-08-19T13:20:12.947Z,12.55
2022-08-19T13:22:41.104Z,14.38
2022-08-19T13:25:10.967Z,13.93
2022-08-19T13:27:39.799Z,13.93
2022-08-19T13:30:28.274Z,14.63
2022-08-19T13:33:12.866Z,15.30
2022-08-19T13:35:46.460Z,12.80
2022-08-19T13:38:16.333Z,13.23
2022-08-19T13:40:44.927Z,14.18
2022-08-19T13:43:17.882Z,13.35
2022-08-19T13:45:54.060Z,13.80
2022-08-19T13:48:24.578Z,14.38
2022-08-19T13:50:53.181Z,13.55
2022-08-19T13:53:21.267Z,13.20
2022-08-19T13:55:51.855Z,21.05
2022-08-19T13:58:20.284Z,25.00
2022-08-19T14:00:50.010Z,18.30
2022-08-19T14:03:18.099Z,16.35
2022-08-19T14:05:48.785Z,14.25
2022-08-19T14:08:16.846Z,16.88
2022-08-19T14:10:46.114Z,14.93
2022-08-19T14:13:17.368Z,12.50
2022-08-19T14:15:46.315Z,12.77
2022-08-19T14:18:14.412Z,13.05
2022-08-19T14:20:43.362Z,12.07
2022-08-19T14:23:14.806Z,11.32
2022-08-19T14:25:43.205Z,10.07
2022-08-19T14:28:11.845Z,9.77
2022-08-19T14:30:40.145Z,10.32
2022-08-19T14:33:09.810Z,9.73
2022-08-19T14:35:39.190Z,8.65
2022-08-19T14:38:09.169Z,8.80
2022-08-19T14:40:40.732Z,8.23
2022-08-19T14:43:09.235Z,8.45
2022-08-19T14:45:40.817Z,7.57
2022-08-19T14:48:19.064Z,7.80
2022-08-19T14:50:47.439Z,7.63
2022-08-19T14:53:15.602Z,11.15
2022-08-19T14:55:46.485Z,7.22
2022-08-19T14:58:29.733Z,7.93
2022-08-19T15:01:00.300Z,7.63
2022-08-19T15:03:29.283Z,7.97
2022-08-19T15:05:59.050Z,7.63
2022-08-19T15:08:27.945Z,7.32
2022-08-19T15:10:58.388Z,8.30
2022-08-19T15:13:28.730Z,8.02
2022-08-19T15:15:58.073Z,8.88
2022-08-19T15:18:26.946Z,8.30
2022-08-19T15:20:56.006Z,8.10
2022-08-19T15:23:24.940Z,8.70
2022-08-19T15:25:56.667Z,8.30
2022-08-19T15:28:27.985Z,10.10
2022-08-19T15:30:56.118Z,9.18
2022-08-19T15:33:24.183Z,7.88
2022-08-19T15:35:53.109Z,13.98
2022-08-19T15:38:24.454Z,7.70
2022-08-19T15:40:54.790Z,9.52
2022-08-19T15:43:23.740Z,10.80
2022-08-19T15:45:53.178Z,7.38
2022-08-19T15:48:21.682Z,6.80
2022-08-19T15:50:49.755Z,7.13
2022-08-19T15:53:18.296Z,8.45
2022-08-19T15:55:48.618Z,7.45
2022-08-19T15:58:35.122Z,9.23
2022-08-19T16:01:28.982Z,7.20
2022-08-19T16:04:16.824Z,9.38
2022-08-19T16:06:49.482Z,10.98
2022-08-19T16:09:23.651Z,16.65
2022-08-19T16:11:57.136Z,40.08
2022-08-19T16:14:29.676Z,7.70
2022-08-19T16:16:59.615Z,7.63
2022-08-19T16:19:28.087Z,7.47
2022-08-19T16:21:58.181Z,63.08
2022-08-19T16:24:28.490Z,7.22
2022-08-19T16:26:57.359Z,7.32
2022-08-19T16:29:34.244Z,8.07
2022-08-19T16:32:06.088Z,10.02
2022-08-19T16:34:34.669Z,8.90
2022-08-19T16:37:02.992Z,8.60
2022-08-19T16:39:31.642Z,14.98
2022-08-19T16:42:00.856Z,16.55
2022-08-19T16:44:30.182Z,196.07
2022-08-19T16:46:59.695Z,111.13
2022-08-19T16:49:53.709Z,245.32
2022-08-19T16:52:20.061Z,217.77
2022-08-19T16:54:49.404Z,169.82
2022-08-19T16:57:18.491Z,64.97
2022-08-19T16:59:49.324Z,72.45
2022-08-19T17:02:18.415Z,105.70
2022-08-19T17:04:58.339Z,113.15
2022-08-19T17:07:28.252Z,85.00
2022-08-19T17:09:56.743Z,122.80
2022-08-19T17:12:29.022Z,51.55
2022-08-19T17:14:59.361Z,8.80
2022-08-19T17:17:29.356Z,20.33
2022-08-19T17:19:59.378Z,9.38
2022-08-19T17:22:28.087Z,14.27
2022-08-19T17:24:58.315Z,166.45
2022-08-19T17:27:31.990Z,34.35
2022-08-19T17:30:01.686Z,14.98
2022-08-19T17:32:29.794Z,20.08
2022-08-19T17:34:59.247Z,32.38
2022-08-19T17:37:28.616Z,13.65
2022-08-19T17:39:56.833Z,24.55
2022-08-19T17:42:25.454Z,51.45
2022-08-19T17:44:53.639Z,12.80
2022-08-19T17:47:22.042Z,11.07
2022-08-19T17:49:50.564Z,15.77
2022-08-19T17:52:20.454Z,14.68
2022-08-19T17:54:49.054Z,9.75
2022-08-19T17:57:17.643Z,21.90
2022-08-19T17:59:46.500Z,59.65
2022-08-19T18:02:15.465Z,21.23
2022-08-19T18:04:48.816Z,9.32
2022-08-19T18:07:21.705Z,21.10
2022-08-19T18:09:52.896Z,11.80
2022-08-19T18:12:24.572Z,11.98
2022-08-19T18:14:53.198Z,11.23
2022-08-19T18:17:23.308Z,10.18
2022-08-19T18:19:51.944Z,22.30
2022-08-19T18:22:27.520Z,17.15
2022-08-19T18:24:57.717Z,10.10
2022-08-19T18:27:26.471Z,11.32
2022-08-19T18:29:59.569Z,11.38
2022-08-19T18:32:31.395Z,11.20
2022-08-19T18:35:02.794Z,41.22
2022-08-19T18:37:31.211Z,54.67
2022-08-19T18:40:18.370Z,54.33
2022-08-19T18:43:05.165Z,35.75
2022-08-19T18:45:51.022Z,37.75
2022-08-19T18:48:37.007Z,84.18
2022-08-19T18:51:05.231Z,23.42
2022-08-19T18:53:37.709Z,90.93
2022-08-19T18:56:08.113Z,11.25
2022-08-19T18:58:38.937Z,32.60
2022-08-19T19:01:11.614Z,14.68
2022-08-19T19:03:42.428Z,9.68
2022-08-19T19:06:10.622Z,21.02
2022-08-19T19:08:41.337Z,11.93
2022-08-19T19:11:11.173Z,43.40
2022-08-19T19:13:41.349Z,45.60
2022-08-19T19:16:11.633Z,89.05
2022-08-19T19:18:40.486Z,28.05
2022-08-19T19:21:09.286Z,204.55
2022-08-19T19:23:40.633Z,9.00
2022-08-19T19:26:10.841Z,10.68
2022-08-19T19:28:44.093Z,11.85
2022-08-19T19:31:14.624Z,11.10
2022-08-19T19:33:44.562Z,11.57
2022-08-19T19:36:14.158Z,12.45
2022-08-19T19:38:48.269Z,10.95
2022-08-19T19:41:23.462Z,10.73
2022-08-19T19:44:10.055Z,11.90
2022-08-19T19:46:42.686Z,10.65
2022-08-19T19:49:11.818Z,11.05
2022-08-19T19:51:41.187Z,10.07
2022-08-19T19:54:14.047Z,11.50
2022-08-19T19:56:45.509Z,11.45
2022-08-19T19:59:14.262Z,12.88
2022-08-19T20:01:46.279Z,11.15
2022-08-19T20:04:16.368Z,11.02
2022-08-19T20:06:44.726Z,11.57
2022-08-19T20:09:16.322Z,11.43
2022-08-19T20:11:53.657Z,12.27
2022-08-19T20:14:26.797Z,11.85
2022-08-19T20:16:57.177Z,11.95
2022-08-19T20:19:28.250Z,11.73
2022-08-19T20:21:57.890Z,13.15
2022-08-19T20:24:32.872Z,11.15
2022-08-19T20:27:03.368Z,13.65
2022-08-19T20:29:39.168Z,12.43
2022-08-19T20:32:11.242Z,11.82
2022-08-19T20:34:40.074Z,12.20
2022-08-19T20:37:09.429Z,12.60
2022-08-19T20:39:38.491Z,11.70
2022-08-19T20:42:08.324Z,11.43
2022-08-19T20:44:37.092Z,11.65
2022-08-19T20:47:05.337Z,11.73
2022-08-19T20:49:34.346Z,11.27
2022-08-19T20:52:03.751Z,12.15
2022-08-19T20:54:32.212Z,12.23
2022-08-19T20:57:01.100Z,11.65
2022-08-19T20:59:30.815Z,11.85
2022-08-19T21:01:59.350Z,12.50
2022-08-19T21:04:27.512Z,11.98
2022-08-19T21:06:56.534Z,13.27
2022-08-19T21:09:24.680Z,12.90
2022-08-19T21:11:53.699Z,13.52
2022-08-19T21:14:23.206Z,12.25
2022-08-19T21:16:52.676Z,12.48
2022-08-19T21:19:24.142Z,11.43
2022-08-19T21:21:52.502Z,12.93
2022-08-19T21:24:20.619Z,12.27
2022-08-19T21:26:51.354Z,11.45
2022-08-19T21:29:19.965Z,12.35
2022-08-19T21:31:49.050Z,13.18
2022-08-19T21:34:19.055Z,12.63
2022-08-19T21:36:47.153Z,11.95
2022-08-19T21:39:15.709Z,12.15
2022-08-19T21:41:43.964Z,13.48
2022-08-19T21:44:12.689Z,12.82
2022-08-19T21:46:41.360Z,11.00
2022-08-19T21:49:09.670Z,11.38
2022-08-19T21:51:39.179Z,10.32
2022-08-19T21:54:07.477Z,12.00
2022-08-19T21:56:42.994Z,11.88
2022-08-19T21:59:11.883Z,11.25
2022-08-19T22:01:40.022Z,10.70
2022-08-19T22:04:08.614Z,11.65
2022-08-19T22:06:38.373Z,10.82
2022-08-19T22:09:06.958Z,11.15
2022-08-19T22:11:35.210Z,11.50
2022-08-19T22:14:03.923Z,10.82
2022-08-19T22:16:33.121Z,11.02
2022-08-19T22:19:01.252Z,10.63
2022-08-19T22:21:40.538Z,10.90
2022-08-19T22:24:10.928Z,11.70
2022-08-19T22:26:39.467Z,11.30
2022-08-19T22:29:08.320Z,10.68
2022-08-19T22:31:38.014Z,10.85
2022-08-19T22:34:06.618Z,10.23
2022-08-19T22:36:35.591Z,11.27
2022-08-19T22:39:05.626Z,11.65
2022-08-19T22:41:35.129Z,10.00
2022-08-19T22:44:04.325Z,10.25
2022-08-19T22:46:33.687Z,11.25
2022-08-19T22:49:02.297Z,11.70
2022-08-19T22:51:48.233Z,10.75
2022-08-19T22:54:17.038Z,11.75
2022-08-19T22:56:46.661Z,11.38
2022-08-19T22:59:15.246Z,10.88
2022-08-19T23:01:43.798Z,10.85
2022-08-19T23:04:12.225Z,10.07
2022-08-19T23:06:42.263Z,11.65
2022-08-19T23:09:16.783Z,10.60
2022-08-19T23:11:48.182Z,10.50
2022-08-19T23:14:18.125Z,11.27
2022-08-19T23:16:51.057Z,10.52
2022-08-19T23:19:20.878Z,11.25
2022-08-19T23:21:49.095Z,10.48
2022-08-19T23:24:17.685Z,11.50
2022-08-19T23:27:01.519Z,11.15
2022-08-19T23:29:48.594Z,11.30
2022-08-19T23:32:17.387Z,21.40
2022-08-19T23:34:45.628Z,11.43
2022-08-19T23:37:14.590Z,11.63
2022-08-19T23:39:44.594Z,11.55
2022-08-19T23:42:15.884Z,9.73
2022-08-19T23:44:51.476Z,9.77
2022-08-19T23:47:21.066Z,10.10
2022-08-19T23:49:49.629Z,9.90
2022-08-19T23:52:18.183Z,10.50
2022-08-19T23:54:46.333Z,9.93
2022-08-19T23:57:16.565Z,10.50
2022-08-19T23:59:46.147Z,10.23
